Accueil
METAR-TAF:

METAR-TAF

Aéroports :

Base aérienne

Niederstetten, Allemagne

latitude: 49-24N, longitude: 009-58E, altitude: 468 m

Observation

Le bulletin a été fait il y a 1 heure et 11 minutes, à 12:20 UTC
Vent 8 kt de est
Température 23°C
Humidité 47%
Pression 1026 hPa
Visibilité 10 km ou plus
Quelques nuages à une hauteur de 32000 ft

METAR: ETHN 221220Z 09008KT 9999 FEW320 23/11 Q1026 BLACKBLU+BLU+

Heure: 15:31 (13:31 UTC)

Prévision

Le bulletin a été fait il y a 3 heures et 31 minutes, à 10:00 UTC
Prévision valable du 22 à 11 UTC au 22 à 20 UTC
Vent 8 kt de est
Visibilité 10 km ou plus
Quelques nuages à une hauteur de 4000 ft

TAF: ETHN 221000Z 2211/2220 08008KT 9999 NSW FEW040

Observations et prévisions météorologiques de plus de 4000 aéroports (messages METAR et TAF).

Les stations disponibles sont représentées par des disques jaunes et rouges sur la carte.

Passer la souris dessus pour voir le nom de la station.

Cliquer dessus pour voir les observations et prévisions météorologiques.

Pour changer de carte: cliquez sur les boutons verts avec une croix noire pour zoomer, sur le bouton vert avec un tiret pour effectuer un zoom arrière, ou sur les flèches vertes pour les cartes adjacentes.


METAR-TAF: